Terminal Aerodrome Forecast
Issued by NWS

Home | Current Version | Previous Version | Graphics & Text | Print | Product List | Glossary On
Versions: 1 2 3 4 5 6 7 8 9 10 11 12 13 14 15 16 17 18 19 20 21 22 23 24 25 26 27
715
FTUS43 KICT 260520
TAFRSL
TAF
KRSL 260520Z 2606/2706 08005KT P6SM BKN012
     FM260800 09003KT 3SM BR OVC006
      TEMPO 2609/2613 1SM BR OVC004
     FM261500 08008KT P6SM BKN012
     FM261800 07013KT P6SM BKN035
     FM262100 06012KT P6SM VCTS BKN035CB
     FM270100 03010KT P6SM VCSH OVC015=

USA.gov is the U.S. government's official web portal to all federal, state and local government web resources and services.